createdAt,value
2022-11-21T00:00:39.066Z,5.90
2022-11-21T00:03:06.078Z,6.00
2022-11-21T00:05:33.023Z,6.00
2022-11-21T00:08:02.477Z,6.10
2022-11-21T00:10:29.538Z,6.20
2022-11-21T00:12:56.385Z,6.20
2022-11-21T00:15:23.316Z,6.30
2022-11-21T00:17:50.471Z,6.30
2022-11-21T00:20:17.406Z,6.20
2022-11-21T00:22:44.402Z,6.20
2022-11-21T00:25:11.325Z,6.20
2022-11-21T00:27:38.338Z,6.20
2022-11-21T00:30:05.218Z,6.10
2022-11-21T00:32:32.248Z,6.00
2022-11-21T00:34:59.312Z,6.00
2022-11-21T00:37:26.445Z,5.90
2022-11-21T00:39:53.617Z,5.90
2022-11-21T00:42:20.657Z,5.80
2022-11-21T00:44:47.574Z,5.80
2022-11-21T00:47:14.745Z,5.70
2022-11-21T00:49:41.772Z,5.70
2022-11-21T00:52:10.989Z,5.70
2022-11-21T00:54:38.091Z,5.80
2022-11-21T00:57:12.534Z,5.70
2022-11-21T00:59:41.936Z,5.70
2022-11-21T01:02:08.888Z,5.70
2022-11-21T01:04:35.940Z,5.70
2022-11-21T01:07:02.964Z,5.70
2022-11-21T01:09:30.004Z,5.60
2022-11-21T01:12:03.018Z,5.70
2022-11-21T01:14:30.175Z,5.60
2022-11-21T01:16:59.017Z,5.60
2022-11-21T01:19:26.109Z,5.50
2022-11-21T01:21:53.149Z,5.50
2022-11-21T01:24:22.583Z,5.40
2022-11-21T01:26:51.364Z,5.50
2022-11-21T01:29:18.312Z,5.50
2022-11-21T01:31:45.366Z,5.50
2022-11-21T01:34:12.402Z,5.40
2022-11-21T01:36:39.351Z,5.40
2022-11-21T01:39:06.495Z,5.40
2022-11-21T01:41:36.609Z,5.40
2022-11-21T01:44:03.766Z,5.40
2022-11-21T01:46:30.767Z,5.30
2022-11-21T01:48:57.972Z,5.30
2022-11-21T01:51:25.122Z,5.20
2022-11-21T01:53:54.512Z,5.30
2022-11-21T01:56:21.669Z,5.20
2022-11-21T01:58:48.709Z,5.20
2022-11-21T02:01:15.861Z,5.20
2022-11-21T02:03:43.175Z,5.10
2022-11-21T02:06:10.251Z,5.10
2022-11-21T02:08:44.666Z,5.10
2022-11-21T02:11:11.726Z,5.10
2022-11-21T02:13:38.675Z,5.10
2022-11-21T02:16:05.745Z,5.00
2022-11-21T02:18:32.766Z,5.00
2022-11-21T02:20:59.934Z,5.00
2022-11-21T02:23:27.101Z,4.90
2022-11-21T02:25:57.346Z,4.90
2022-11-21T02:28:24.413Z,4.90
2022-11-21T02:30:51.501Z,4.80
2022-11-21T02:33:18.420Z,4.80
2022-11-21T02:35:45.390Z,4.80
2022-11-21T02:38:12.617Z,4.80
2022-11-21T02:40:39.661Z,4.80
2022-11-21T02:43:06.603Z,4.80
2022-11-21T02:45:33.627Z,4.80
2022-11-21T02:48:03.996Z,4.90
2022-11-21T02:50:31.502Z,4.90
2022-11-21T02:52:58.614Z,4.90
2022-11-21T02:55:25.669Z,4.80
2022-11-21T02:57:52.693Z,4.80
2022-11-21T03:00:19.860Z,4.80
2022-11-21T03:02:46.974Z,4.90
2022-11-21T03:05:16.379Z,4.80
2022-11-21T03:07:43.480Z,4.80
2022-11-21T03:10:11.402Z,4.70
2022-11-21T03:12:45.953Z,4.70
2022-11-21T03:15:13.050Z,4.80
2022-11-21T03:17:42.566Z,4.70
2022-11-21T03:20:16.865Z,4.70
2022-11-21T03:22:43.960Z,4.70
2022-11-21T03:25:11.084Z,4.70
2022-11-21T03:27:38.075Z,4.60
2022-11-21T03:30:14.409Z,4.60
2022-11-21T03:32:43.829Z,4.60
2022-11-21T03:35:13.518Z,4.50
2022-11-21T03:37:40.674Z,4.50
2022-11-21T03:40:07.700Z,4.50
2022-11-21T03:42:34.764Z,4.40
2022-11-21T03:45:01.817Z,4.40
2022-11-21T03:47:28.955Z,4.40
2022-11-21T03:49:59.387Z,4.30
2022-11-21T03:52:26.547Z,4.30
2022-11-21T03:54:53.593Z,4.20
2022-11-21T03:57:22.480Z,4.20
2022-11-21T03:59:49.699Z,4.10
2022-11-21T04:02:16.771Z,4.10
2022-11-21T04:04:43.887Z,4.10
2022-11-21T04:07:13.575Z,4.00
2022-11-21T04:09:43.140Z,4.00
2022-11-21T04:12:12.889Z,4.00
2022-11-21T04:14:39.991Z,4.00
2022-11-21T04:17:07.158Z,3.90
2022-11-21T04:19:34.245Z,3.90
2022-11-21T04:22:01.143Z,3.90
2022-11-21T04:24:28.365Z,3.90
2022-11-21T04:26:55.769Z,3.80
2022-11-21T04:29:25.223Z,3.80
2022-11-21T04:31:52.215Z,3.70
2022-11-21T04:34:21.648Z,3.70
2022-11-21T04:36:48.657Z,3.80
2022-11-21T04:39:15.670Z,3.80
2022-11-21T04:41:42.840Z,3.80
2022-11-21T04:44:09.804Z,3.80
2022-11-21T04:46:36.861Z,3.80
2022-11-21T04:49:03.883Z,3.70
2022-11-21T04:51:30.840Z,3.70
2022-11-21T04:53:57.868Z,3.70
2022-11-21T04:56:24.908Z,3.60
2022-11-21T04:58:51.986Z,3.60
2022-11-21T05:01:24.804Z,3.60
2022-11-21T05:03:53.918Z,3.60
2022-11-21T05:06:23.341Z,3.50
2022-11-21T05:08:53.469Z,3.50
2022-11-21T05:12:12.801Z,3.40
2022-11-21T05:14:32.441Z,3.40
2022-11-21T05:17:02.468Z,3.30
2022-11-21T05:19:29.602Z,3.30
2022-11-21T05:21:56.903Z,3.40
2022-11-21T05:24:23.945Z,3.30
2022-11-21T05:26:51.102Z,3.30
2022-11-21T05:29:18.186Z,3.30
2022-11-21T05:31:45.169Z,3.30
2022-11-21T05:34:12.290Z,3.30
2022-11-21T05:36:39.421Z,3.30
2022-11-21T05:39:09.133Z,3.40
2022-11-21T05:41:37.576Z,3.40
2022-11-21T05:44:04.643Z,3.60
2022-11-21T05:46:34.130Z,3.60
2022-11-21T05:49:01.219Z,3.60
2022-11-21T05:51:28.447Z,3.60
2022-11-21T05:54:00.352Z,3.60
2022-11-21T05:56:27.470Z,3.60
2022-11-21T05:58:54.592Z,3.60
2022-11-21T06:01:41.442Z,3.60
2022-11-21T06:04:08.503Z,3.60
2022-11-21T06:06:35.641Z,3.60
2022-11-21T06:09:05.234Z,3.70
2022-11-21T06:11:32.407Z,3.70
2022-11-21T06:13:59.555Z,3.70
2022-11-21T06:19:10.125Z,3.80
2022-11-21T06:21:40.352Z,3.80
2022-11-21T06:24:10.359Z,3.90
2022-11-21T06:26:40.073Z,3.90
2022-11-21T06:29:07.081Z,3.90
2022-11-21T06:31:34.145Z,3.90
2022-11-21T06:34:01.288Z,4.00
2022-11-21T06:36:28.257Z,4.00
2022-11-21T06:39:00.710Z,4.10
2022-11-21T06:41:33.515Z,4.20
2022-11-21T06:44:01.859Z,4.10
2022-11-21T06:46:29.026Z,4.20
2022-11-21T06:48:57.618Z,4.30
2022-11-21T06:51:24.687Z,4.30
2022-11-21T06:53:56.245Z,4.40
2022-11-21T06:56:23.276Z,4.50
2022-11-21T06:58:50.401Z,4.50
2022-11-21T07:01:17.433Z,4.60
2022-11-21T07:03:50.237Z,4.70
2022-11-21T07:06:19.664Z,4.70
2022-11-21T07:08:49.723Z,4.80
2022-11-21T07:11:24.980Z,4.90
2022-11-21T07:13:52.915Z,5.00
2022-11-21T07:16:20.213Z,5.10
2022-11-21T07:18:47.285Z,5.10
2022-11-21T07:21:16.736Z,5.10
2022-11-21T07:23:43.937Z,5.30
2022-11-21T07:26:10.952Z,5.50
2022-11-21T07:28:38.009Z,5.50
2022-11-21T07:31:09.997Z,5.60
2022-11-21T07:33:40.102Z,5.80
2022-11-21T07:36:07.770Z,5.90
2022-11-21T07:38:34.704Z,6.00
2022-11-21T07:41:01.647Z,6.20
2022-11-21T07:43:31.336Z,6.20
2022-11-21T07:45:58.264Z,6.20
2022-11-21T07:48:25.436Z,6.30
2022-11-21T07:50:52.696Z,6.30
2022-11-21T07:53:19.773Z,6.40
2022-11-21T07:55:46.821Z,6.30
2022-11-21T07:58:17.653Z,6.30
2022-11-21T08:00:44.608Z,6.30
2022-11-21T08:03:14.668Z,6.40
2022-11-21T08:05:44.683Z,6.40
2022-11-21T08:08:11.574Z,6.40
2022-11-21T08:10:38.704Z,6.40
2022-11-21T08:13:05.643Z,6.40
2022-11-21T08:15:32.627Z,6.50
2022-11-21T08:17:59.744Z,6.50
2022-11-21T08:20:26.911Z,6.50
2022-11-21T08:22:53.965Z,6.50
2022-11-21T08:25:23.167Z,6.70
2022-11-21T08:27:52.783Z,6.70
2022-11-21T08:30:25.273Z,6.70
2022-11-21T08:32:52.384Z,6.80
2022-11-21T08:35:21.281Z,6.80
2022-11-21T08:37:48.294Z,6.70
2022-11-21T08:40:15.460Z,6.80
2022-11-21T08:42:42.431Z,6.80
2022-11-21T08:45:09.563Z,6.90
2022-11-21T08:47:39.077Z,6.90
2022-11-21T08:50:09.110Z,6.90
2022-11-21T08:52:36.598Z,6.90
2022-11-21T08:55:03.712Z,7.00
2022-11-21T08:57:31.819Z,7.10
2022-11-21T08:59:58.914Z,7.20
2022-11-21T09:02:25.974Z,7.20
2022-11-21T09:04:54.024Z,7.20
2022-11-21T09:07:21.263Z,7.30
2022-11-21T09:09:48.341Z,7.30
2022-11-21T09:12:15.383Z,7.40
2022-11-21T09:15:01.527Z,7.40
2022-11-21T09:17:47.984Z,7.40
2022-11-21T09:20:15.229Z,7.50
2022-11-21T09:22:42.428Z,7.50
2022-11-21T09:25:09.268Z,7.50
2022-11-21T09:27:36.120Z,7.50
2022-11-21T09:30:03.234Z,7.60
2022-11-21T09:32:30.213Z,7.70
2022-11-21T09:34:57.396Z,7.80
2022-11-21T09:37:24.522Z,7.80
2022-11-21T09:39:51.463Z,7.80
2022-11-21T09:42:18.505Z,7.80
2022-11-21T09:44:45.472Z,7.90
2022-11-21T09:47:12.487Z,7.80
2022-11-21T09:49:39.517Z,7.80
2022-11-21T09:52:06.446Z,7.80
2022-11-21T09:54:33.504Z,7.70
2022-11-21T09:57:01.219Z,7.70
2022-11-21T09:59:30.621Z,7.70
2022-11-21T10:01:57.887Z,7.70
2022-11-21T10:04:24.935Z,7.70
2022-11-21T10:06:51.944Z,7.70
2022-11-21T10:09:19.002Z,7.70
2022-11-21T10:12:04.563Z,7.70
2022-11-21T10:14:31.506Z,7.70
2022-11-21T10:16:58.516Z,7.70
2022-11-21T10:19:25.452Z,7.70
2022-11-21T10:21:52.276Z,7.70
2022-11-21T10:24:19.280Z,7.80
2022-11-21T10:26:46.359Z,7.80
2022-11-21T10:29:13.472Z,7.90
2022-11-21T10:31:40.455Z,8.00
2022-11-21T10:34:07.484Z,8.00
2022-11-21T10:36:34.469Z,8.00
2022-11-21T10:39:01.520Z,8.00
2022-11-21T10:41:28.527Z,8.00
2022-11-21T10:44:14.122Z,8.10
2022-11-21T10:46:41.254Z,8.00
2022-11-21T10:49:08.797Z,8.10
2022-11-21T10:51:35.456Z,8.10
2022-11-21T10:54:20.982Z,8.20
2022-11-21T10:56:47.988Z,8.20
2022-11-21T10:59:15.031Z,8.30
2022-11-21T11:01:41.696Z,8.30
2022-11-21T11:04:26.726Z,8.30
2022-11-21T11:06:54.346Z,8.30
2022-11-21T11:09:21.248Z,8.40
2022-11-21T11:11:48.262Z,8.40
2022-11-21T11:14:17.337Z,8.40
2022-11-21T11:16:44.232Z,8.40
2022-11-21T11:19:10.870Z,8.50
2022-11-21T11:21:37.567Z,8.50
2022-11-21T11:24:04.322Z,8.50
2022-11-21T11:26:30.967Z,8.50
2022-11-21T11:28:57.758Z,8.50
2022-11-21T11:31:24.583Z,8.50
2022-11-21T11:33:51.317Z,8.60
2022-11-21T11:36:17.970Z,8.60
2022-11-21T11:38:44.914Z,8.60
2022-11-21T11:41:11.822Z,8.60
2022-11-21T11:43:57.307Z,8.70
2022-11-21T11:46:43.109Z,8.70
2022-11-21T11:49:20.784Z,8.70
2022-11-21T11:51:48.561Z,8.70
2022-11-21T11:54:15.495Z,8.70
2022-11-21T11:56:42.429Z,8.80
2022-11-21T11:59:09.509Z,8.80
2022-11-21T12:01:36.139Z,8.80
2022-11-21T12:04:02.777Z,8.90
2022-11-21T12:06:57.355Z,9.00
2022-11-21T12:09:16.682Z,9.00
2022-11-21T12:12:02.335Z,9.10
2022-11-21T12:14:48.072Z,9.30
2022-11-21T12:17:15.021Z,9.30
2022-11-21T12:19:41.761Z,9.30
2022-11-21T12:22:09.026Z,9.30
2022-11-21T12:24:39.934Z,9.50
2022-11-21T12:27:09.881Z,9.50
2022-11-21T12:29:36.786Z,9.40
2022-11-21T12:32:04.384Z,9.50
2022-11-21T12:34:31.068Z,9.70
2022-11-21T12:36:57.718Z,9.60
2022-11-21T12:39:24.570Z,9.50
2022-11-21T12:42:10.963Z,9.50
2022-11-21T12:44:37.848Z,9.50
2022-11-21T12:47:04.986Z,9.50
2022-11-21T12:49:54.563Z,9.50
2022-11-21T12:52:54.340Z,9.30
2022-11-21T12:55:21.496Z,9.30
2022-11-21T12:57:48.447Z,9.30
2022-11-21T13:00:15.731Z,9.20
2022-11-21T13:02:42.825Z,9.20
2022-11-21T13:05:09.818Z,9.20
2022-11-21T13:07:36.951Z,9.20
2022-11-21T13:10:04.051Z,9.10
2022-11-21T13:12:31.450Z,9.10
2022-11-21T13:14:58.444Z,9.10
2022-11-21T13:17:25.402Z,9.10
2022-11-21T13:19:52.416Z,9.00
2022-11-21T13:22:19.368Z,9.00
2022-11-21T13:24:48.755Z,8.90
2022-11-21T13:27:15.674Z,8.80
2022-11-21T13:29:42.576Z,8.80
2022-11-21T13:32:09.681Z,8.80
2022-11-21T13:34:36.861Z,8.70
2022-11-21T13:37:04.057Z,8.60
2022-11-21T13:39:31.603Z,8.40
2022-11-21T13:42:20.644Z,8.30
2022-11-21T13:44:48.002Z,8.30
2022-11-21T13:47:15.097Z,8.20
2022-11-21T13:49:42.094Z,8.20
2022-11-21T13:52:09.253Z,8.10
2022-11-21T13:54:36.175Z,8.10
2022-11-21T13:57:03.133Z,8.00
2022-11-21T13:59:30.546Z,8.00
2022-11-21T14:01:58.133Z,8.00
2022-11-21T14:04:25.181Z,8.00
2022-11-21T14:06:52.186Z,7.90
2022-11-21T14:09:19.250Z,7.90
2022-11-21T14:11:50.217Z,7.90
2022-11-21T14:14:17.325Z,7.90
2022-11-21T14:16:44.498Z,7.90
2022-11-21T14:19:11.555Z,7.90
2022-11-21T14:21:38.569Z,7.90
2022-11-21T14:24:05.445Z,7.80
2022-11-21T14:26:32.533Z,7.90
2022-11-21T14:28:59.526Z,7.90
2022-11-21T14:31:26.524Z,7.90
2022-11-21T14:33:53.815Z,7.80
2022-11-21T14:36:20.761Z,7.80
2022-11-21T14:38:53.965Z,7.80
2022-11-21T14:41:34.811Z,7.80
2022-11-21T14:44:02.452Z,7.90
2022-11-21T14:46:29.562Z,7.90
2022-11-21T14:48:57.731Z,7.80
2022-11-21T14:51:24.664Z,7.80
2022-11-21T14:53:51.795Z,7.90
2022-11-21T14:56:18.998Z,7.80
2022-11-21T14:58:47.113Z,7.80
2022-11-21T15:01:14.320Z,7.90
2022-11-21T15:03:41.371Z,7.90
2022-11-21T15:06:08.797Z,7.90
2022-11-21T15:09:58.974Z,7.90
2022-11-21T15:11:22.917Z,7.90
2022-11-21T15:16:36.553Z,8.00
2022-11-21T15:19:03.606Z,7.90
2022-11-21T15:21:30.616Z,8.00
2022-11-21T15:23:57.743Z,8.00
2022-11-21T15:26:24.706Z,8.00
2022-11-21T15:28:51.691Z,8.10
2022-11-21T15:31:21.230Z,8.10
2022-11-21T15:34:00.953Z,8.10
2022-11-21T15:36:35.199Z,8.10
2022-11-21T15:39:02.189Z,8.10
2022-11-21T15:41:29.207Z,8.20
2022-11-21T15:43:56.045Z,8.20
2022-11-21T15:46:23.212Z,8.20
2022-11-21T15:48:50.305Z,8.20
2022-11-21T15:51:20.420Z,8.20
2022-11-21T15:53:59.015Z,8.30
2022-11-21T15:56:25.985Z,8.30
2022-11-21T15:58:53.137Z,8.30
2022-11-21T16:01:20.178Z,8.30
2022-11-21T16:03:47.276Z,8.30
2022-11-21T16:06:14.247Z,8.30
2022-11-21T16:08:41.165Z,8.30
2022-11-21T16:11:08.200Z,8.30
2022-11-21T16:13:35.161Z,8.30
2022-11-21T16:16:02.187Z,8.40
2022-11-21T16:18:29.292Z,8.40
2022-11-21T16:20:56.204Z,8.50
2022-11-21T16:23:22.920Z,8.50
2022-11-21T16:25:49.585Z,8.50
2022-11-21T16:28:16.285Z,8.50
2022-11-21T16:30:43.287Z,8.60
2022-11-21T16:33:10.037Z,8.60
2022-11-21T16:35:36.735Z,8.60
2022-11-21T16:38:03.426Z,8.50
2022-11-21T16:40:30.090Z,8.50
2022-11-21T16:42:56.762Z,8.60
2022-11-21T16:45:23.670Z,8.60
2022-11-21T16:47:50.334Z,8.60
2022-11-21T16:50:17.007Z,8.60
2022-11-21T16:52:43.679Z,8.60
2022-11-21T16:55:10.463Z,8.60
2022-11-21T16:57:37.121Z,8.50
2022-11-21T17:00:03.773Z,8.60
2022-11-21T17:02:30.466Z,8.50
2022-11-21T17:04:57.216Z,8.40
2022-11-21T17:07:24.090Z,8.30
2022-11-21T17:09:50.782Z,8.30
2022-11-21T17:12:17.515Z,8.20
2022-11-21T17:14:45.299Z,8.20
2022-11-21T17:17:12.067Z,8.20
2022-11-21T17:19:38.663Z,8.20
2022-11-21T17:22:05.604Z,8.10
2022-11-21T17:24:32.602Z,8.00
2022-11-21T17:27:03.043Z,8.00
2022-11-21T17:29:30.038Z,7.90
2022-11-21T17:31:57.026Z,7.90
2022-11-21T17:34:28.367Z,7.90
2022-11-21T17:36:58.473Z,7.90
2022-11-21T17:39:29.966Z,7.80
2022-11-21T17:41:59.742Z,7.80
2022-11-21T17:44:30.141Z,7.80
2022-11-21T17:46:59.472Z,7.80
2022-11-21T17:49:27.555Z,7.90
2022-11-21T17:51:56.723Z,7.90
2022-11-21T17:54:23.898Z,7.90
2022-11-21T17:56:56.436Z,7.90
2022-11-21T17:59:23.812Z,8.00
2022-11-21T18:01:50.922Z,7.90
2022-11-21T18:04:18.498Z,8.00
2022-11-21T18:06:45.499Z,8.00
2022-11-21T18:09:12.633Z,8.00
2022-11-21T18:11:40.576Z,8.10
2022-11-21T18:14:07.702Z,8.00
2022-11-21T18:16:34.732Z,8.00
2022-11-21T18:19:01.778Z,8.10
2022-11-21T18:21:32.225Z,8.10
2022-11-21T18:24:01.881Z,8.10
2022-11-21T18:26:28.802Z,8.10
2022-11-21T18:29:13.386Z,8.10
2022-11-21T18:31:47.297Z,8.10
2022-11-21T18:34:14.312Z,8.00
2022-11-21T18:36:41.689Z,8.00
2022-11-21T18:39:13.669Z,8.10
2022-11-21T18:41:41.977Z,8.10
2022-11-21T18:44:09.054Z,8.10
2022-11-21T18:46:36.032Z,8.10
2022-11-21T18:49:06.282Z,8.20
2022-11-21T18:51:33.992Z,8.20
2022-11-21T18:54:00.816Z,8.10
2022-11-21T18:56:28.271Z,8.20
2022-11-21T18:58:58.598Z,8.10
2022-11-21T19:01:26.190Z,8.10
2022-11-21T19:03:53.210Z,8.10
2022-11-21T19:06:20.962Z,8.00
2022-11-21T19:08:50.365Z,8.00
2022-11-21T19:11:17.421Z,8.00
2022-11-21T19:13:50.427Z,7.80
2022-11-21T19:16:17.496Z,7.80
2022-11-21T19:18:51.295Z,7.70
2022-11-21T19:21:27.244Z,7.60
2022-11-21T19:23:55.113Z,7.50
2022-11-21T19:26:22.696Z,7.40
2022-11-21T19:28:49.779Z,7.40
2022-11-21T19:31:17.008Z,7.30
2022-11-21T19:33:44.172Z,7.40
2022-11-21T19:36:11.772Z,7.30
2022-11-21T19:38:38.994Z,7.20
2022-11-21T19:41:16.392Z,7.20
2022-11-21T19:44:07.439Z,7.10
2022-11-21T19:49:28.749Z,7.10
2022-11-21T19:51:56.350Z,7.00
2022-11-21T19:54:23.167Z,7.10
2022-11-21T19:56:53.411Z,7.10
2022-11-21T19:59:20.452Z,7.10
2022-11-21T20:01:52.377Z,7.00
2022-11-21T20:04:20.047Z,7.00
2022-11-21T20:06:47.073Z,6.90
2022-11-21T20:09:14.669Z,6.90
2022-11-21T20:11:41.753Z,6.90
2022-11-21T20:14:08.844Z,6.90
2022-11-21T20:16:35.869Z,6.90
2022-11-21T20:19:14.919Z,6.80
2022-11-21T20:21:44.673Z,6.90
2022-11-21T20:27:21.819Z,6.80
2022-11-21T20:29:49.267Z,6.80
2022-11-21T20:32:16.459Z,6.80
2022-11-21T20:34:46.561Z,6.70
2022-11-21T20:37:16.715Z,6.90
2022-11-21T20:39:43.736Z,6.80
2022-11-21T20:42:10.695Z,6.80
2022-11-21T20:47:27.918Z,6.70
2022-11-21T20:49:54.937Z,6.60
2022-11-21T20:55:08.892Z,6.70
2022-11-21T20:57:35.872Z,6.70
2022-11-21T21:00:03.039Z,6.70
2022-11-21T21:02:30.181Z,6.60
2022-11-21T21:04:57.076Z,6.60
2022-11-21T21:07:23.842Z,6.60
2022-11-21T21:09:50.977Z,6.50
2022-11-21T21:12:18.092Z,6.50
2022-11-21T21:14:45.099Z,6.40
2022-11-21T21:17:11.903Z,6.60
2022-11-21T21:19:38.966Z,6.60
2022-11-21T21:22:06.021Z,6.60
2022-11-21T21:24:33.334Z,6.50
2022-11-21T21:27:00.378Z,6.40
2022-11-21T21:29:27.585Z,6.50
2022-11-21T21:31:54.647Z,6.30
2022-11-21T21:34:21.770Z,6.50
2022-11-21T21:36:48.788Z,6.50
2022-11-21T21:39:15.948Z,6.40
2022-11-21T21:42:01.411Z,6.30
2022-11-21T21:44:35.048Z,6.30
2022-11-21T21:47:02.492Z,6.40
2022-11-21T21:49:41.708Z,6.30
2022-11-21T21:52:08.757Z,6.30
2022-11-21T21:54:35.778Z,6.40
2022-11-21T21:57:05.726Z,6.30
2022-11-21T21:59:33.414Z,6.20
2022-11-21T22:02:00.428Z,6.20
2022-11-21T22:04:30.063Z,6.30
2022-11-21T22:06:57.342Z,6.20
2022-11-21T22:09:24.324Z,6.30
2022-11-21T22:11:51.261Z,6.30
2022-11-21T22:14:18.437Z,6.30
2022-11-21T22:16:45.481Z,6.30
2022-11-21T22:19:12.449Z,6.20
2022-11-21T22:21:39.329Z,6.20
2022-11-21T22:26:53.422Z,6.30
2022-11-21T22:29:20.385Z,6.20
2022-11-21T22:31:47.362Z,6.10
2022-11-21T22:34:14.706Z,6.10
2022-11-21T22:36:41.979Z,6.10
2022-11-21T22:39:09.335Z,6.10
2022-11-21T22:41:36.241Z,6.10
2022-11-21T22:44:03.008Z,6.20
2022-11-21T22:46:29.761Z,6.00
2022-11-21T22:48:56.705Z,6.00
2022-11-21T22:51:23.715Z,6.10
2022-11-21T22:53:50.791Z,6.00
2022-11-21T22:56:18.010Z,6.00
2022-11-21T22:58:45.086Z,6.00
2022-11-21T23:01:12.553Z,6.00
2022-11-21T23:03:39.492Z,5.90
2022-11-21T23:06:06.843Z,6.00
2022-11-21T23:08:33.855Z,5.90
2022-11-21T23:11:01.201Z,5.90
2022-11-21T23:13:28.024Z,5.80
2022-11-21T23:15:55.068Z,6.00
2022-11-21T23:18:22.088Z,5.80
2022-11-21T23:20:49.023Z,5.80
2022-11-21T23:23:15.944Z,5.90
2022-11-21T23:25:42.910Z,6.00
2022-11-21T23:28:09.751Z,5.90
2022-11-21T23:30:36.582Z,6.00
2022-11-21T23:33:03.903Z,6.10
2022-11-21T23:35:30.826Z,6.00
2022-11-21T23:37:57.676Z,5.90
2022-11-21T23:40:24.914Z,5.90
2022-11-21T23:42:52.019Z,5.80
2022-11-21T23:45:18.963Z,5.70
2022-11-21T23:47:46.015Z,5.80
2022-11-21T23:50:13.035Z,5.70
2022-11-21T23:52:40.002Z,5.60
2022-11-21T23:55:07.050Z,5.60
2022-11-21T23:57:34.153Z,5.50
